Aviation Digital Data Service (ADDS)

Output produced by METARs form (2104 UTC 06 December 2019)
found at http://www.aviationweather.gov/metar/data/
 
METAR text: ZGSZ 062000Z 02008MPS CAVOK 13/M03 Q1025 NOSIG
Conditions at: ZGSZ (SHENZHEN , CN) observed 2000 UTC 06 December 2019
Temperature: 13.0°C (55°F)
Dewpoint: -3.0°C (27°F) [RH = 33%]
Pressure (altimeter): 30.27 inches Hg (1025.0 mb)
Winds: from the NNE (20 degrees) at 18 MPH (16 knots; 8.2 m/s)
Visibility: 6 or more miles (10+ km)
Ceiling: ceiling and visibility are OK
Clouds: unknown
Weather: no significant weather observed at this time

METAR text: ZGSZ 061900Z 02008MPS CAVOK 14/M03 Q1025 NOSIG
Conditions at: ZGSZ (SHENZHEN , CN) observed 1900 UTC 06 December 2019
Temperature: 14.0°C (57°F)
Dewpoint: -3.0°C (27°F) [RH = 31%]
Pressure (altimeter): 30.27 inches Hg (1025.0 mb)
Winds: from the NNE (20 degrees) at 18 MPH (16 knots; 8.2 m/s)
Visibility: 6 or more miles (10+ km)
Ceiling: ceiling and visibility are OK
Clouds: unknown
Weather: no significant weather observed at this time

METAR text: ZGSZ 061800Z 02006MPS CAVOK 14/M03 Q1025 NOSIG
Conditions at: ZGSZ (SHENZHEN , CN) observed 1800 UTC 06 December 2019
Temperature: 14.0°C (57°F)
Dewpoint: -3.0°C (27°F) [RH = 31%]
Pressure (altimeter): 30.27 inches Hg (1025.0 mb)
Winds: from the NNE (20 degrees) at 14 MPH (12 knots; 6.2 m/s)
Visibility: 6 or more miles (10+ km)
Ceiling: ceiling and visibility are OK
Clouds: unknown
Weather: no significant weather observed at this time

METAR text: ZGSZ 061700Z 02008MPS CAVOK 15/M04 Q1025 NOSIG
Conditions at: ZGSZ (SHENZHEN , CN) observed 1700 UTC 06 December 2019
Temperature: 15.0°C (59°F)
Dewpoint: -4.0°C (25°F) [RH = 27%]
Pressure (altimeter): 30.27 inches Hg (1025.0 mb)
Winds: from the NNE (20 degrees) at 18 MPH (16 knots; 8.2 m/s)
Visibility: 6 or more miles (10+ km)
Ceiling: ceiling and visibility are OK
Clouds: unknown
Weather: no significant weather observed at this time

METAR text: ZGSZ 061600Z 02007MPS CAVOK 15/M04 Q1025 NOSIG
Conditions at: ZGSZ (SHENZHEN , CN) observed 1600 UTC 06 December 2019
Temperature: 15.0°C (59°F)
Dewpoint: -4.0°C (25°F) [RH = 27%]
Pressure (altimeter): 30.27 inches Hg (1025.0 mb)
Winds: from the NNE (20 degrees) at 16 MPH (14 knots; 7.2 m/s)
Visibility: 6 or more miles (10+ km)
Ceiling: ceiling and visibility are OK
Clouds: unknown
Weather: no significant weather observed at this time

METAR text: ZGSZ 061500Z 02006MPS CAVOK 16/M04 Q1026 NOSIG
Conditions at: ZGSZ (SHENZHEN , CN) observed 1500 UTC 06 December 2019
Temperature: 16.0°C (61°F)
Dewpoint: -4.0°C (25°F) [RH = 25%]
Pressure (altimeter): 30.30 inches Hg (1026.0 mb)
Winds: from the NNE (20 degrees) at 14 MPH (12 knots; 6.2 m/s)
Visibility: 6 or more miles (10+ km)
Ceiling: ceiling and visibility are OK
Clouds: unknown
Weather: no significant weather observed at this time

METAR text: ZGSZ 061400Z 01007MPS CAVOK 16/M05 Q1026 NOSIG
Conditions at: ZGSZ (SHENZHEN , CN) observed 1400 UTC 06 December 2019
Temperature: 16.0°C (61°F)
Dewpoint: -5.0°C (23°F) [RH = 23%]
Pressure (altimeter): 30.30 inches Hg (1026.0 mb)
Winds: from the N (10 degrees) at 16 MPH (14 knots; 7.2 m/s)
Visibility: 6 or more miles (10+ km)
Ceiling: ceiling and visibility are OK
Clouds: unknown
Weather: no significant weather observed at this time

METAR text: ZGSZ 061300Z 03007MPS CAVOK 17/M06 Q1025 NOSIG
Conditions at: ZGSZ (SHENZHEN , CN) observed 1300 UTC 06 December 2019
Temperature: 17.0°C (63°F)
Dewpoint: -6.0°C (21°F) [RH = 20%]
Pressure (altimeter): 30.27 inches Hg (1025.0 mb)
Winds: from the NNE (30 degrees) at 16 MPH (14 knots; 7.2 m/s)
Visibility: 6 or more miles (10+ km)
Ceiling: ceiling and visibility are OK
Clouds: unknown
Weather: no significant weather observed at this time

METAR text: ZGSZ 061200Z 02006MPS CAVOK 18/M06 Q1025 NOSIG
Conditions at: ZGSZ (SHENZHEN , CN) observed 1200 UTC 06 December 2019
Temperature: 18.0°C (64°F)
Dewpoint: -6.0°C (21°F) [RH = 19%]
Pressure (altimeter): 30.27 inches Hg (1025.0 mb)
Winds: from the NNE (20 degrees) at 14 MPH (12 knots; 6.2 m/s)
Visibility: 6 or more miles (10+ km)
Ceiling: ceiling and visibility are OK
Clouds: unknown
Weather: no significant weather observed at this time

METAR text: ZGSZ 061100Z 02005MPS CAVOK 18/M06 Q1025 NOSIG
Conditions at: ZGSZ (SHENZHEN , CN) observed 1100 UTC 06 December 2019
Temperature: 18.0°C (64°F)
Dewpoint: -6.0°C (21°F) [RH = 19%]
Pressure (altimeter): 30.27 inches Hg (1025.0 mb)
Winds: from the NNE (20 degrees) at 12 MPH (10 knots; 5.1 m/s)
Visibility: 6 or more miles (10+ km)
Ceiling: ceiling and visibility are OK
Clouds: unknown
Weather: no significant weather observed at this time

METAR text: ZGSZ 061000Z 02006MPS CAVOK 19/M05 Q1024 NOSIG
Conditions at: ZGSZ (SHENZHEN , CN) observed 1000 UTC 06 December 2019
Temperature: 19.0°C (66°F)
Dewpoint: -5.0°C (23°F) [RH = 19%]
Pressure (altimeter): 30.24 inches Hg (1024.0 mb)
Winds: from the NNE (20 degrees) at 14 MPH (12 knots; 6.2 m/s)
Visibility: 6 or more miles (10+ km)
Ceiling: ceiling and visibility are OK
Clouds: unknown
Weather: no significant weather observed at this time

METAR text: ZGSZ 060900Z 02006MPS 340V050 CAVOK 20/M04 Q1023 NOSIG
Conditions at: ZGSZ (SHENZHEN , CN) observed 0900 UTC 06 December 2019
Temperature: 20.0°C (68°F)
Dewpoint: -4.0°C (25°F) [RH = 19%]
Pressure (altimeter): 30.21 inches Hg (1023.0 mb)
Winds: from the NNE (20 degrees) at 14 MPH (12 knots; 6.2 m/s)
Visibility: 6 or more miles (10+ km)
Ceiling: ceiling and visibility are OK
Clouds: unknown
Weather: no significant weather observed at this time

METAR text: ZGSZ 060800Z 02006MPS 350V050 CAVOK 21/M04 Q1023 NOSIG
Conditions at: ZGSZ (SHENZHEN , CN) observed 0800 UTC 06 December 2019
Temperature: 21.0°C (70°F)
Dewpoint: -4.0°C (25°F) [RH = 18%]
Pressure (altimeter): 30.21 inches Hg (1023.0 mb)
Winds: from the NNE (20 degrees) at 14 MPH (12 knots; 6.2 m/s)
Visibility: 6 or more miles (10+ km)
Ceiling: ceiling and visibility are OK
Clouds: unknown
Weather: no significant weather observed at this time

METAR text: ZGSZ 060700Z 03007MPS 360V060 CAVOK 21/M03 Q1023 NOSIG
Conditions at: ZGSZ (SHENZHEN , CN) observed 0700 UTC 06 December 2019
Temperature: 21.0°C (70°F)
Dewpoint: -3.0°C (27°F) [RH = 20%]
Pressure (altimeter): 30.21 inches Hg (1023.0 mb)
Winds: from the NNE (30 degrees) at 16 MPH (14 knots; 7.2 m/s)
Visibility: 6 or more miles (10+ km)
Ceiling: ceiling and visibility are OK
Clouds: unknown
Weather: no significant weather observed at this time

METAR text: ZGSZ 060600Z 01009MPS CAVOK 21/M04 Q1023 NOSIG
Conditions at: ZGSZ (SHENZHEN , CN) observed 0600 UTC 06 December 2019
Temperature: 21.0°C (70°F)
Dewpoint: -4.0°C (25°F) [RH = 18%]
Pressure (altimeter): 30.21 inches Hg (1023.0 mb)
Winds: from the N (10 degrees) at 20 MPH (17 knots; 8.7 m/s)
Visibility: 6 or more miles (10+ km)
Ceiling: ceiling and visibility are OK
Clouds: unknown
Weather: no significant weather observed at this time

METAR text: ZGSZ 060500Z 02010MPS CAVOK 20/M04 Q1025 NOSIG
Conditions at: ZGSZ (SHENZHEN , CN) observed 0500 UTC 06 December 2019
Temperature: 20.0°C (68°F)
Dewpoint: -4.0°C (25°F) [RH = 19%]
Pressure (altimeter): 30.27 inches Hg (1025.0 mb)
Winds: from the NNE (20 degrees) at 22 MPH (19 knots; 9.8 m/s)
Visibility: 6 or more miles (10+ km)
Ceiling: ceiling and visibility are OK
Clouds: unknown
Weather: no significant weather observed at this time

METAR text: ZGSZ 060400Z 02009MPS CAVOK 19/M04 Q1026 NOSIG
Conditions at: ZGSZ (SHENZHEN , CN) observed 0400 UTC 06 December 2019
Temperature: 19.0°C (66°F)
Dewpoint: -4.0°C (25°F) [RH = 21%]
Pressure (altimeter): 30.30 inches Hg (1026.0 mb)
Winds: from the NNE (20 degrees) at 20 MPH (17 knots; 8.7 m/s)
Visibility: 6 or more miles (10+ km)
Ceiling: ceiling and visibility are OK
Clouds: unknown
Weather: no significant weather observed at this time

METAR text: ZGSZ 060300Z 01009MPS CAVOK 18/M05 Q1027 NOSIG
Conditions at: ZGSZ (SHENZHEN , CN) observed 0300 UTC 06 December 2019
Temperature: 18.0°C (64°F)
Dewpoint: -5.0°C (23°F) [RH = 20%]
Pressure (altimeter): 30.32 inches Hg (1027.0 mb)
Winds: from the N (10 degrees) at 20 MPH (17 knots; 8.7 m/s)
Visibility: 6 or more miles (10+ km)
Ceiling: ceiling and visibility are OK
Clouds: unknown
Weather: no significant weather observed at this time

METAR text: ZGSZ 060200Z 02010MPS CAVOK 17/M05 Q1027 NOSIG
Conditions at: ZGSZ (SHENZHEN , CN) observed 0200 UTC 06 December 2019
Temperature: 17.0°C (63°F)
Dewpoint: -5.0°C (23°F) [RH = 22%]
Pressure (altimeter): 30.32 inches Hg (1027.0 mb)
Winds: from the NNE (20 degrees) at 22 MPH (19 knots; 9.8 m/s)
Visibility: 6 or more miles (10+ km)
Ceiling: ceiling and visibility are OK
Clouds: unknown
Weather: no significant weather observed at this time

METAR text: ZGSZ 060100Z 01008MPS CAVOK 16/M05 Q1027 NOSIG
Conditions at: ZGSZ (SHENZHEN , CN) observed 0100 UTC 06 December 2019
Temperature: 16.0°C (61°F)
Dewpoint: -5.0°C (23°F) [RH = 23%]
Pressure (altimeter): 30.32 inches Hg (1027.0 mb)
Winds: from the N (10 degrees) at 18 MPH (16 knots; 8.2 m/s)
Visibility: 6 or more miles (10+ km)
Ceiling: ceiling and visibility are OK
Clouds: unknown
Weather: no significant weather observed at this time

METAR text: ZGSZ 060000Z 02008MPS CAVOK 16/M05 Q1027 NOSIG
Conditions at: ZGSZ (SHENZHEN , CN) observed 0000 UTC 06 December 2019
Temperature: 16.0°C (61°F)
Dewpoint: -5.0°C (23°F) [RH = 23%]
Pressure (altimeter): 30.32 inches Hg (1027.0 mb)
Winds: from the NNE (20 degrees) at 18 MPH (16 knots; 8.2 m/s)
Visibility: 6 or more miles (10+ km)
Ceiling: ceiling and visibility are OK
Clouds: unknown
Weather: no significant weather observed at this time

METAR text: ZGSZ 052300Z 02008MPS CAVOK 15/M06 Q1026 NOSIG
Conditions at: ZGSZ (SHENZHEN , CN) observed 2300 UTC 05 December 2019
Temperature: 15.0°C (59°F)
Dewpoint: -6.0°C (21°F) [RH = 23%]
Pressure (altimeter): 30.30 inches Hg (1026.0 mb)
Winds: from the NNE (20 degrees) at 18 MPH (16 knots; 8.2 m/s)
Visibility: 6 or more miles (10+ km)
Ceiling: ceiling and visibility are OK
Clouds: unknown
Weather: no significant weather observed at this time

METAR text: ZGSZ 052200Z 01008MPS CAVOK 15/M05 Q1026 NOSIG
Conditions at: ZGSZ (SHENZHEN , CN) observed 2200 UTC 05 December 2019
Temperature: 15.0°C (59°F)
Dewpoint: -5.0°C (23°F) [RH = 25%]
Pressure (altimeter): 30.30 inches Hg (1026.0 mb)
Winds: from the N (10 degrees) at 18 MPH (16 knots; 8.2 m/s)
Visibility: 6 or more miles (10+ km)
Ceiling: ceiling and visibility are OK
Clouds: unknown
Weather: no significant weather observed at this time

METAR text: ZGSZ 052100Z 02006MPS CAVOK 16/M04 Q1025 NOSIG
Conditions at: ZGSZ (SHENZHEN , CN) observed 2100 UTC 05 December 2019
Temperature: 16.0°C (61°F)
Dewpoint: -4.0°C (25°F) [RH = 25%]
Pressure (altimeter): 30.27 inches Hg (1025.0 mb)
Winds: from the NNE (20 degrees) at 14 MPH (12 knots; 6.2 m/s)
Visibility: 6 or more miles (10+ km)
Ceiling: ceiling and visibility are OK
Clouds: unknown
Weather: no significant weather observed at this time

METAR text: ZGSZ 052000Z 02008MPS CAVOK 16/M04 Q1025 NOSIG
Conditions at: ZGSZ (SHENZHEN , CN) observed 2000 UTC 05 December 2019
Temperature: 16.0°C (61°F)
Dewpoint: -4.0°C (25°F) [RH = 25%]
Pressure (altimeter): 30.27 inches Hg (1025.0 mb)
Winds: from the NNE (20 degrees) at 18 MPH (16 knots; 8.2 m/s)
Visibility: 6 or more miles (10+ km)
Ceiling: ceiling and visibility are OK
Clouds: unknown
Weather: no significant weather observed at this time

METAR text: ZGSZ 051900Z 03006G12MPS CAVOK 15/M02 Q1025 NOSIG
Conditions at: ZGSZ (SHENZHEN , CN) observed 1900 UTC 05 December 2019
Temperature: 15.0°C (59°F)
Dewpoint: -2.0°C (28°F) [RH = 31%]
Pressure (altimeter): 30.27 inches Hg (1025.0 mb)
Winds: from the NNE (30 degrees) at 14 MPH (12 knots; 6.2 m/s)
gusting to 26 MPH (23 knots; 11.8 m/s)
Visibility: 6 or more miles (10+ km)
Ceiling: ceiling and visibility are OK
Clouds: unknown
Weather: no significant weather observed at this time

METAR text: ZGSZ 051800Z 01006MPS CAVOK 15/M01 Q1026 NOSIG
Conditions at: ZGSZ (SHENZHEN , CN) observed 1800 UTC 05 December 2019
Temperature: 15.0°C (59°F)
Dewpoint: -1.0°C (30°F) [RH = 33%]
Pressure (altimeter): 30.30 inches Hg (1026.0 mb)
Winds: from the N (10 degrees) at 14 MPH (12 knots; 6.2 m/s)
Visibility: 6 or more miles (10+ km)
Ceiling: ceiling and visibility are OK
Clouds: unknown
Weather: no significant weather observed at this time

METAR text: ZGSZ 051700Z 03006MPS CAVOK 16/M00 Q1026 NOSIG
Conditions at: ZGSZ (SHENZHEN , CN) observed 1700 UTC 05 December 2019
Temperature: 16.0°C (61°F)
Dewpoint: 0.0°C (32°F) [RH = 34%]
Pressure (altimeter): 30.30 inches Hg (1026.0 mb)
Winds: from the NNE (30 degrees) at 14 MPH (12 knots; 6.2 m/s)
Visibility: 6 or more miles (10+ km)
Ceiling: ceiling and visibility are OK
Clouds: unknown
Weather: no significant weather observed at this time

METAR text: ZGSZ 051600Z 02006MPS 340V060 CAVOK 16/M00 Q1026 NOSIG
Conditions at: ZGSZ (SHENZHEN , CN) observed 1600 UTC 05 December 2019
Temperature: 16.0°C (61°F)
Dewpoint: 0.0°C (32°F) [RH = 34%]
Pressure (altimeter): 30.30 inches Hg (1026.0 mb)
Winds: from the NNE (20 degrees) at 14 MPH (12 knots; 6.2 m/s)
Visibility: 6 or more miles (10+ km)
Ceiling: ceiling and visibility are OK
Clouds: unknown
Weather: no significant weather observed at this time

METAR text: ZGSZ 051500Z 01004MPS CAVOK 16/M02 Q1027 NOSIG
Conditions at: ZGSZ (SHENZHEN , CN) observed 1500 UTC 05 December 2019
Temperature: 16.0°C (61°F)
Dewpoint: -2.0°C (28°F) [RH = 29%]
Pressure (altimeter): 30.32 inches Hg (1027.0 mb)
Winds: from the N (10 degrees) at 9 MPH (8 knots; 4.1 m/s)
Visibility: 6 or more miles (10+ km)
Ceiling: ceiling and visibility are OK
Clouds: unknown
Weather: no significant weather observed at this time

METAR text: ZGSZ 051400Z 04005MPS CAVOK 16/M02 Q1027 NOSIG
Conditions at: ZGSZ (SHENZHEN , CN) observed 1400 UTC 05 December 2019
Temperature: 16.0°C (61°F)
Dewpoint: -2.0°C (28°F) [RH = 29%]
Pressure (altimeter): 30.32 inches Hg (1027.0 mb)
Winds: from the NE (40 degrees) at 12 MPH (10 knots; 5.1 m/s)
Visibility: 6 or more miles (10+ km)
Ceiling: ceiling and visibility are OK
Clouds: unknown
Weather: no significant weather observed at this time

METAR text: ZGSZ 051300Z 05003MPS CAVOK 16/M01 Q1027 NOSIG
Conditions at: ZGSZ (SHENZHEN , CN) observed 1300 UTC 05 December 2019
Temperature: 16.0°C (61°F)
Dewpoint: -1.0°C (30°F) [RH = 31%]
Pressure (altimeter): 30.32 inches Hg (1027.0 mb)
Winds: from the NE (50 degrees) at 7 MPH (6 knots; 3.1 m/s)
Visibility: 6 or more miles (10+ km)
Ceiling: ceiling and visibility are OK
Clouds: unknown
Weather: no significant weather observed at this time

METAR text: ZGSZ 051200Z 05005MPS CAVOK 16/M03 Q1026 NOSIG
Conditions at: ZGSZ (SHENZHEN , CN) observed 1200 UTC 05 December 2019
Temperature: 16.0°C (61°F)
Dewpoint: -3.0°C (27°F) [RH = 27%]
Pressure (altimeter): 30.30 inches Hg (1026.0 mb)
Winds: from the NE (50 degrees) at 12 MPH (10 knots; 5.1 m/s)
Visibility: 6 or more miles (10+ km)
Ceiling: ceiling and visibility are OK
Clouds: unknown
Weather: no significant weather observed at this time

METAR text: ZGSZ 051100Z 04004MPS CAVOK 17/M02 Q1025 NOSIG
Conditions at: ZGSZ (SHENZHEN , CN) observed 1100 UTC 05 December 2019
Temperature: 17.0°C (63°F)
Dewpoint: -2.0°C (28°F) [RH = 27%]
Pressure (altimeter): 30.27 inches Hg (1025.0 mb)
Winds: from the NE (40 degrees) at 9 MPH (8 knots; 4.1 m/s)
Visibility: 6 or more miles (10+ km)
Ceiling: ceiling and visibility are OK
Clouds: unknown
Weather: no significant weather observed at this time

METAR text: ZGSZ 051000Z 06004MPS CAVOK 17/M02 Q1025 NOSIG
Conditions at: ZGSZ (SHENZHEN , CN) observed 1000 UTC 05 December 2019
Temperature: 17.0°C (63°F)
Dewpoint: -2.0°C (28°F) [RH = 27%]
Pressure (altimeter): 30.27 inches Hg (1025.0 mb)
Winds: from the ENE (60 degrees) at 9 MPH (8 knots; 4.1 m/s)
Visibility: 6 or more miles (10+ km)
Ceiling: ceiling and visibility are OK
Clouds: unknown
Weather: no significant weather observed at this time

Forecast for: ZGSZ (SHENZHEN , CN)
Text: TAF ZGSZ 061501Z 0618/0718 03005G10MPS CAVOK TX22/0706Z TN13/0622Z
Forecast period: 1800 UTC 06 December 2019 to 1800 UTC 07 December 2019
Forecast type: FROM: standard forecast or significant change
Winds: from the NNE (30 degrees) at 12 MPH (10 knots; 5.1 m/s)
gusting to 22 MPH (19 knots; 9.8 m/s)
Visibility: 6 or more miles 10+ km)
Ceiling: unknown
Clouds: missing
Weather: no significant weather forecast for this period